sensor_id;sensor_type;location;lat;lon;timestamp;temperature;humidity
18163;DHT22;9206;50.994;4.538;2023-02-22T00:00:33;5.20;99.90
18163;DHT22;9206;50.994;4.538;2023-02-22T00:03:30;5.20;99.90
18163;DHT22;9206;50.994;4.538;2023-02-22T00:06:22;5.20;99.90
18163;DHT22;9206;50.994;4.538;2023-02-22T00:09:11;5.20;99.90
18163;DHT22;9206;50.994;4.538;2023-02-22T00:12:03;5.20;99.90
18163;DHT22;9206;50.994;4.538;2023-02-22T00:14:58;5.20;99.90
18163;DHT22;9206;50.994;4.538;2023-02-22T00:17:45;5.20;99.90
18163;DHT22;9206;50.994;4.538;2023-02-22T00:20:39;5.20;99.90
18163;DHT22;9206;50.994;4.538;2023-02-22T00:23:28;5.20;99.90
18163;DHT22;9206;50.994;4.538;2023-02-22T00:26:18;5.20;99.90
18163;DHT22;9206;50.994;4.538;2023-02-22T00:29:06;5.20;99.90
18163;DHT22;9206;50.994;4.538;2023-02-22T00:32:01;5.20;99.90
18163;DHT22;9206;50.994;4.538;2023-02-22T00:34:51;5.20;99.90
18163;DHT22;9206;50.994;4.538;2023-02-22T00:37:42;5.20;99.90
18163;DHT22;9206;50.994;4.538;2023-02-22T00:40:35;5.20;99.90
18163;DHT22;9206;50.994;4.538;2023-02-22T00:43:29;5.20;99.90
18163;DHT22;9206;50.994;4.538;2023-02-22T00:46:16;5.20;99.90
18163;DHT22;9206;50.994;4.538;2023-02-22T00:49:05;5.20;99.90
18163;DHT22;9206;50.994;4.538;2023-02-22T00:51:54;5.20;99.90
18163;DHT22;9206;50.994;4.538;2023-02-22T00:54:43;5.20;99.90
18163;DHT22;9206;50.994;4.538;2023-02-22T00:57:32;5.10;99.90
18163;DHT22;9206;50.994;4.538;2023-02-22T01:00:23;5.20;99.90
18163;DHT22;9206;50.994;4.538;2023-02-22T01:03:18;5.10;99.90
18163;DHT22;9206;50.994;4.538;2023-02-22T01:06:08;5.10;99.90
18163;DHT22;9206;50.994;4.538;2023-02-22T01:08:56;5.10;99.90
18163;DHT22;9206;50.994;4.538;2023-02-22T01:11:44;5.10;99.90
18163;DHT22;9206;50.994;4.538;2023-02-22T01:14:34;5.00;99.90
18163;DHT22;9206;50.994;4.538;2023-02-22T01:17:27;5.00;99.90
18163;DHT22;9206;50.994;4.538;2023-02-22T01:20:15;5.10;99.90
18163;DHT22;9206;50.994;4.538;2023-02-22T01:23:05;5.10;99.90
18163;DHT22;9206;50.994;4.538;2023-02-22T01:25:54;5.10;99.90
18163;DHT22;9206;50.994;4.538;2023-02-22T01:28:47;5.10;99.90
18163;DHT22;9206;50.994;4.538;2023-02-22T01:31:34;5.10;99.90
18163;DHT22;9206;50.994;4.538;2023-02-22T01:34:24;5.10;99.90
18163;DHT22;9206;50.994;4.538;2023-02-22T01:37:13;5.10;99.90
18163;DHT22;9206;50.994;4.538;2023-02-22T01:40:10;5.10;99.90
18163;DHT22;9206;50.994;4.538;2023-02-22T01:43:03;5.00;99.90
18163;DHT22;9206;50.994;4.538;2023-02-22T01:45:58;5.00;99.90
18163;DHT22;9206;50.994;4.538;2023-02-22T01:48:55;4.90;99.90
18163;DHT22;9206;50.994;4.538;2023-02-22T01:51:47;4.90;99.90
18163;DHT22;9206;50.994;4.538;2023-02-22T01:54:45;4.90;99.90
18163;DHT22;9206;50.994;4.538;2023-02-22T01:57:38;4.90;99.90
18163;DHT22;9206;50.994;4.538;2023-02-22T02:00:27;4.80;99.90
18163;DHT22;9206;50.994;4.538;2023-02-22T02:03:25;4.80;99.90
18163;DHT22;9206;50.994;4.538;2023-02-22T02:06:16;4.80;99.90
18163;DHT22;9206;50.994;4.538;2023-02-22T02:09:11;4.70;99.90
18163;DHT22;9206;50.994;4.538;2023-02-22T02:12:01;4.70;99.90
18163;DHT22;9206;50.994;4.538;2023-02-22T02:15:16;4.70;99.90
18163;DHT22;9206;50.994;4.538;2023-02-22T02:18:06;4.70;99.90
18163;DHT22;9206;50.994;4.538;2023-02-22T02:21:10;4.70;99.90
18163;DHT22;9206;50.994;4.538;2023-02-22T02:27:36;4.70;99.90
18163;DHT22;9206;50.994;4.538;2023-02-22T02:33:54;4.70;99.90
18163;DHT22;9206;50.994;4.538;2023-02-22T02:36:50;4.60;99.90
18163;DHT22;9206;50.994;4.538;2023-02-22T02:39:59;4.70;99.90
18163;DHT22;9206;50.994;4.538;2023-02-22T02:42:56;4.70;99.90
18163;DHT22;9206;50.994;4.538;2023-02-22T02:45:52;4.60;99.90
18163;DHT22;9206;50.994;4.538;2023-02-22T02:48:44;4.60;99.90
18163;DHT22;9206;50.994;4.538;2023-02-22T02:51:40;4.60;99.90
18163;DHT22;9206;50.994;4.538;2023-02-22T02:54:30;4.50;99.90
18163;DHT22;9206;50.994;4.538;2023-02-22T02:57:21;4.60;99.90
18163;DHT22;9206;50.994;4.538;2023-02-22T03:00:13;4.50;99.90
18163;DHT22;9206;50.994;4.538;2023-02-22T03:06:52;4.50;99.90
18163;DHT22;9206;50.994;4.538;2023-02-22T03:09:48;4.50;99.90
18163;DHT22;9206;50.994;4.538;2023-02-22T03:12:46;4.40;99.90
18163;DHT22;9206;50.994;4.538;2023-02-22T03:15:43;4.30;99.90
18163;DHT22;9206;50.994;4.538;2023-02-22T03:18:43;4.30;99.90
18163;DHT22;9206;50.994;4.538;2023-02-22T03:21:43;4.20;99.90
18163;DHT22;9206;50.994;4.538;2023-02-22T03:24:44;4.20;99.90
18163;DHT22;9206;50.994;4.538;2023-02-22T03:27:41;4.10;99.90
18163;DHT22;9206;50.994;4.538;2023-02-22T03:30:37;4.00;99.90
18163;DHT22;9206;50.994;4.538;2023-02-22T03:33:31;4.00;99.90
18163;DHT22;9206;50.994;4.538;2023-02-22T03:36:25;3.90;99.90
18163;DHT22;9206;50.994;4.538;2023-02-22T03:39:18;3.90;99.90
18163;DHT22;9206;50.994;4.538;2023-02-22T03:42:13;4.00;99.90
18163;DHT22;9206;50.994;4.538;2023-02-22T03:45:03;3.90;99.90
18163;DHT22;9206;50.994;4.538;2023-02-22T03:48:00;3.90;99.90
18163;DHT22;9206;50.994;4.538;2023-02-22T03:50:55;3.90;99.90
18163;DHT22;9206;50.994;4.538;2023-02-22T03:53:46;3.80;99.90
18163;DHT22;9206;50.994;4.538;2023-02-22T03:56:39;3.70;99.90
18163;DHT22;9206;50.994;4.538;2023-02-22T03:59:35;3.70;99.90
18163;DHT22;9206;50.994;4.538;2023-02-22T04:02:22;3.60;99.90
18163;DHT22;9206;50.994;4.538;2023-02-22T04:05:10;3.60;99.90
18163;DHT22;9206;50.994;4.538;2023-02-22T04:07:59;3.60;99.90
18163;DHT22;9206;50.994;4.538;2023-02-22T04:10:46;3.60;99.90
18163;DHT22;9206;50.994;4.538;2023-02-22T04:13:34;3.50;99.90
18163;DHT22;9206;50.994;4.538;2023-02-22T04:16:24;3.50;99.90
18163;DHT22;9206;50.994;4.538;2023-02-22T04:19:15;3.50;99.90
18163;DHT22;9206;50.994;4.538;2023-02-22T04:22:05;3.50;99.90
18163;DHT22;9206;50.994;4.538;2023-02-22T04:24:53;3.60;99.90
18163;DHT22;9206;50.994;4.538;2023-02-22T04:27:42;3.50;99.90
18163;DHT22;9206;50.994;4.538;2023-02-22T04:30:31;3.50;99.90
18163;DHT22;9206;50.994;4.538;2023-02-22T04:33:26;3.50;99.90
18163;DHT22;9206;50.994;4.538;2023-02-22T04:36:14;3.50;99.90
18163;DHT22;9206;50.994;4.538;2023-02-22T04:39:03;3.50;99.90
18163;DHT22;9206;50.994;4.538;2023-02-22T04:41:51;3.50;99.90
18163;DHT22;9206;50.994;4.538;2023-02-22T04:44:41;3.50;99.90
18163;DHT22;9206;50.994;4.538;2023-02-22T04:47:29;3.50;99.90
18163;DHT22;9206;50.994;4.538;2023-02-22T04:50:18;3.50;99.90
18163;DHT22;9206;50.994;4.538;2023-02-22T04:53:05;3.50;99.90
18163;DHT22;9206;50.994;4.538;2023-02-22T04:55:54;3.40;99.90
18163;DHT22;9206;50.994;4.538;2023-02-22T04:58:44;3.50;99.90
18163;DHT22;9206;50.994;4.538;2023-02-22T05:01:34;3.50;99.90
18163;DHT22;9206;50.994;4.538;2023-02-22T05:04:22;3.50;99.90
18163;DHT22;9206;50.994;4.538;2023-02-22T05:07:13;3.50;99.90
18163;DHT22;9206;50.994;4.538;2023-02-22T05:10:01;3.40;99.90
18163;DHT22;9206;50.994;4.538;2023-02-22T05:12:50;3.40;99.90
18163;DHT22;9206;50.994;4.538;2023-02-22T05:15:41;3.40;99.90
18163;DHT22;9206;50.994;4.538;2023-02-22T05:18:28;3.40;99.90
18163;DHT22;9206;50.994;4.538;2023-02-22T05:21:19;3.50;99.90
18163;DHT22;9206;50.994;4.538;2023-02-22T05:24:08;3.40;99.90
18163;DHT22;9206;50.994;4.538;2023-02-22T05:26:57;3.40;99.90
18163;DHT22;9206;50.994;4.538;2023-02-22T05:29:50;3.40;99.90
18163;DHT22;9206;50.994;4.538;2023-02-22T05:32:43;3.40;99.90
18163;DHT22;9206;50.994;4.538;2023-02-22T05:35:31;3.30;99.90
18163;DHT22;9206;50.994;4.538;2023-02-22T05:38:19;3.30;99.90
18163;DHT22;9206;50.994;4.538;2023-02-22T05:41:11;3.30;99.90
18163;DHT22;9206;50.994;4.538;2023-02-22T05:44:05;3.30;99.90
18163;DHT22;9206;50.994;4.538;2023-02-22T05:46:55;3.20;99.90
18163;DHT22;9206;50.994;4.538;2023-02-22T05:49:49;3.20;99.90
18163;DHT22;9206;50.994;4.538;2023-02-22T05:52:39;3.20;99.90
18163;DHT22;9206;50.994;4.538;2023-02-22T05:55:28;3.20;99.90
18163;DHT22;9206;50.994;4.538;2023-02-22T05:58:18;3.10;99.90
18163;DHT22;9206;50.994;4.538;2023-02-22T06:01:06;3.10;99.90
18163;DHT22;9206;50.994;4.538;2023-02-22T06:03:54;3.20;99.90
18163;DHT22;9206;50.994;4.538;2023-02-22T06:06:41;3.20;99.90
18163;DHT22;9206;50.994;4.538;2023-02-22T06:09:28;3.20;99.90
18163;DHT22;9206;50.994;4.538;2023-02-22T06:12:17;3.10;99.90
18163;DHT22;9206;50.994;4.538;2023-02-22T06:15:06;3.20;99.90
18163;DHT22;9206;50.994;4.538;2023-02-22T06:18:00;3.20;99.90
18163;DHT22;9206;50.994;4.538;2023-02-22T06:20:53;3.10;99.90
18163;DHT22;9206;50.994;4.538;2023-02-22T06:23:46;3.20;99.90
18163;DHT22;9206;50.994;4.538;2023-02-22T06:26:35;3.20;99.90
18163;DHT22;9206;50.994;4.538;2023-02-22T06:29:22;3.20;99.90
18163;DHT22;9206;50.994;4.538;2023-02-22T06:32:13;3.20;99.90
18163;DHT22;9206;50.994;4.538;2023-02-22T06:35:01;3.20;99.90
18163;DHT22;9206;50.994;4.538;2023-02-22T06:37:54;3.20;99.90
18163;DHT22;9206;50.994;4.538;2023-02-22T06:40:42;3.20;99.90
18163;DHT22;9206;50.994;4.538;2023-02-22T06:43:31;3.10;99.90
18163;DHT22;9206;50.994;4.538;2023-02-22T06:46:18;3.20;99.90
18163;DHT22;9206;50.994;4.538;2023-02-22T06:49:12;3.10;99.90
18163;DHT22;9206;50.994;4.538;2023-02-22T06:52:03;3.10;99.90
18163;DHT22;9206;50.994;4.538;2023-02-22T06:54:52;3.10;99.90
18163;DHT22;9206;50.994;4.538;2023-02-22T06:57:45;3.10;99.90
18163;DHT22;9206;50.994;4.538;2023-02-22T07:00:35;3.10;99.90
18163;DHT22;9206;50.994;4.538;2023-02-22T07:03:29;3.10;99.90
18163;DHT22;9206;50.994;4.538;2023-02-22T07:06:18;3.20;99.90
18163;DHT22;9206;50.994;4.538;2023-02-22T07:09:07;3.20;99.90
18163;DHT22;9206;50.994;4.538;2023-02-22T07:11:55;3.20;99.90
18163;DHT22;9206;50.994;4.538;2023-02-22T07:14:43;3.30;99.90
18163;DHT22;9206;50.994;4.538;2023-02-22T07:17:32;3.30;99.90
18163;DHT22;9206;50.994;4.538;2023-02-22T07:20:22;3.40;99.90
18163;DHT22;9206;50.994;4.538;2023-02-22T07:23:14;3.40;99.90
18163;DHT22;9206;50.994;4.538;2023-02-22T07:26:04;3.50;99.90
18163;DHT22;9206;50.994;4.538;2023-02-22T07:28:54;3.60;99.90
18163;DHT22;9206;50.994;4.538;2023-02-22T07:31:48;3.60;99.90
18163;DHT22;9206;50.994;4.538;2023-02-22T07:34:35;3.70;99.90
18163;DHT22;9206;50.994;4.538;2023-02-22T07:37:25;3.70;99.90
18163;DHT22;9206;50.994;4.538;2023-02-22T07:40:20;3.70;99.90
18163;DHT22;9206;50.994;4.538;2023-02-22T07:43:14;3.80;99.90
18163;DHT22;9206;50.994;4.538;2023-02-22T07:46:07;3.90;99.90
18163;DHT22;9206;50.994;4.538;2023-02-22T07:48:56;4.00;99.90
18163;DHT22;9206;50.994;4.538;2023-02-22T07:51:59;4.10;99.90
18163;DHT22;9206;50.994;4.538;2023-02-22T07:54:47;4.20;99.90
18163;DHT22;9206;50.994;4.538;2023-02-22T07:57:35;4.40;99.90
18163;DHT22;9206;50.994;4.538;2023-02-22T08:00:25;4.50;99.90
18163;DHT22;9206;50.994;4.538;2023-02-22T08:03:16;4.60;99.90
18163;DHT22;9206;50.994;4.538;2023-02-22T08:06:06;4.70;99.90
18163;DHT22;9206;50.994;4.538;2023-02-22T08:08:55;4.80;99.90
18163;DHT22;9206;50.994;4.538;2023-02-22T08:11:46;4.90;99.90
18163;DHT22;9206;50.994;4.538;2023-02-22T08:14:38;5.00;99.90
18163;DHT22;9206;50.994;4.538;2023-02-22T08:17:31;5.10;99.90
18163;DHT22;9206;50.994;4.538;2023-02-22T08:20:21;5.20;99.90
18163;DHT22;9206;50.994;4.538;2023-02-22T08:23:18;5.40;99.90
18163;DHT22;9206;50.994;4.538;2023-02-22T08:26:11;5.40;99.90
18163;DHT22;9206;50.994;4.538;2023-02-22T08:29:09;5.50;99.90
18163;DHT22;9206;50.994;4.538;2023-02-22T08:31:58;5.60;99.90
18163;DHT22;9206;50.994;4.538;2023-02-22T08:34:49;5.70;99.90
18163;DHT22;9206;50.994;4.538;2023-02-22T08:37:41;5.70;99.90
18163;DHT22;9206;50.994;4.538;2023-02-22T08:40:31;5.90;99.90
18163;DHT22;9206;50.994;4.538;2023-02-22T08:43:22;5.90;99.90
18163;DHT22;9206;50.994;4.538;2023-02-22T08:46:16;6.10;99.90
18163;DHT22;9206;50.994;4.538;2023-02-22T08:49:11;6.20;99.90
18163;DHT22;9206;50.994;4.538;2023-02-22T08:51:58;6.30;99.90
18163;DHT22;9206;50.994;4.538;2023-02-22T08:54:46;6.40;99.90
18163;DHT22;9206;50.994;4.538;2023-02-22T08:57:43;6.50;99.90
18163;DHT22;9206;50.994;4.538;2023-02-22T09:00:32;6.60;99.90
18163;DHT22;9206;50.994;4.538;2023-02-22T09:03:21;6.70;99.90
18163;DHT22;9206;50.994;4.538;2023-02-22T09:06:12;6.70;99.90
18163;DHT22;9206;50.994;4.538;2023-02-22T09:09:01;6.80;99.90
18163;DHT22;9206;50.994;4.538;2023-02-22T09:11:52;6.90;99.90
18163;DHT22;9206;50.994;4.538;2023-02-22T09:14:41;6.90;99.90
18163;DHT22;9206;50.994;4.538;2023-02-22T09:17:30;6.90;99.90
18163;DHT22;9206;50.994;4.538;2023-02-22T09:20:19;6.90;99.90
18163;DHT22;9206;50.994;4.538;2023-02-22T09:23:11;7.00;99.90
18163;DHT22;9206;50.994;4.538;2023-02-22T09:26:00;7.00;99.90
18163;DHT22;9206;50.994;4.538;2023-02-22T09:28:50;7.10;99.90
18163;DHT22;9206;50.994;4.538;2023-02-22T09:31:39;7.10;99.90
18163;DHT22;9206;50.994;4.538;2023-02-22T09:34:28;7.20;99.90
18163;DHT22;9206;50.994;4.538;2023-02-22T09:37:17;7.10;99.90
18163;DHT22;9206;50.994;4.538;2023-02-22T09:40:13;7.10;99.90
18163;DHT22;9206;50.994;4.538;2023-02-22T09:43:13;7.10;99.90
18163;DHT22;9206;50.994;4.538;2023-02-22T09:46:14;7.00;99.90
18163;DHT22;9206;50.994;4.538;2023-02-22T09:49:08;7.00;99.90
18163;DHT22;9206;50.994;4.538;2023-02-22T09:52:03;7.00;99.90
18163;DHT22;9206;50.994;4.538;2023-02-22T09:55:06;7.10;99.90
18163;DHT22;9206;50.994;4.538;2023-02-22T09:57:57;7.20;99.90
18163;DHT22;9206;50.994;4.538;2023-02-22T10:00:47;7.20;99.90
18163;DHT22;9206;50.994;4.538;2023-02-22T10:03:47;7.30;99.90
18163;DHT22;9206;50.994;4.538;2023-02-22T10:06:38;7.40;99.90
18163;DHT22;9206;50.994;4.538;2023-02-22T10:09:28;7.50;99.90
18163;DHT22;9206;50.994;4.538;2023-02-22T10:12:24;7.50;99.90
18163;DHT22;9206;50.994;4.538;2023-02-22T10:15:31;7.60;99.90
18163;DHT22;9206;50.994;4.538;2023-02-22T10:21:58;7.80;99.90
18163;DHT22;9206;50.994;4.538;2023-02-22T10:24:56;8.00;99.90
18163;DHT22;9206;50.994;4.538;2023-02-22T10:27:50;8.10;99.90
18163;DHT22;9206;50.994;4.538;2023-02-22T10:30:44;8.20;99.90
18163;DHT22;9206;50.994;4.538;2023-02-22T10:33:38;8.40;99.90
18163;DHT22;9206;50.994;4.538;2023-02-22T10:36:29;8.40;99.90
18163;DHT22;9206;50.994;4.538;2023-02-22T10:39:24;8.40;99.90
18163;DHT22;9206;50.994;4.538;2023-02-22T10:42:23;8.50;99.90
18163;DHT22;9206;50.994;4.538;2023-02-22T10:45:20;8.60;99.90
18163;DHT22;9206;50.994;4.538;2023-02-22T10:48:13;8.80;99.90
18163;DHT22;9206;50.994;4.538;2023-02-22T10:51:09;8.90;99.90
18163;DHT22;9206;50.994;4.538;2023-02-22T10:54:17;9.10;99.90
18163;DHT22;9206;50.994;4.538;2023-02-22T10:57:10;9.40;99.90
18163;DHT22;9206;50.994;4.538;2023-02-22T11:00:14;9.70;99.90
18163;DHT22;9206;50.994;4.538;2023-02-22T11:03:17;9.90;99.90
18163;DHT22;9206;50.994;4.538;2023-02-22T11:06:18;10.20;99.90
18163;DHT22;9206;50.994;4.538;2023-02-22T11:09:11;10.50;99.90
18163;DHT22;9206;50.994;4.538;2023-02-22T11:12:10;10.70;99.90
18163;DHT22;9206;50.994;4.538;2023-02-22T11:15:23;10.90;99.90
18163;DHT22;9206;50.994;4.538;2023-02-22T11:18:25;11.10;99.90
18163;DHT22;9206;50.994;4.538;2023-02-22T11:21:21;11.10;99.90
18163;DHT22;9206;50.994;4.538;2023-02-22T11:24:13;11.10;99.90
18163;DHT22;9206;50.994;4.538;2023-02-22T11:27:04;11.20;99.90
18163;DHT22;9206;50.994;4.538;2023-02-22T11:29:53;11.30;99.90
18163;DHT22;9206;50.994;4.538;2023-02-22T11:32:46;11.50;99.90
18163;DHT22;9206;50.994;4.538;2023-02-22T11:35:39;11.60;99.90
18163;DHT22;9206;50.994;4.538;2023-02-22T11:38:38;11.60;99.90
18163;DHT22;9206;50.994;4.538;2023-02-22T11:41:27;11.60;99.90
18163;DHT22;9206;50.994;4.538;2023-02-22T11:44:22;11.60;99.90
18163;DHT22;9206;50.994;4.538;2023-02-22T11:47:11;11.50;99.90
18163;DHT22;9206;50.994;4.538;2023-02-22T11:50:01;11.30;99.90
18163;DHT22;9206;50.994;4.538;2023-02-22T11:53:08;11.20;99.90
18163;DHT22;9206;50.994;4.538;2023-02-22T11:56:12;11.20;99.90
18163;DHT22;9206;50.994;4.538;2023-02-22T11:59:06;11.10;99.90
18163;DHT22;9206;50.994;4.538;2023-02-22T12:02:18;11.00;99.90
18163;DHT22;9206;50.994;4.538;2023-02-22T12:05:22;11.10;99.90
18163;DHT22;9206;50.994;4.538;2023-02-22T12:08:22;11.20;99.90
18163;DHT22;9206;50.994;4.538;2023-02-22T12:11:25;11.60;99.90
18163;DHT22;9206;50.994;4.538;2023-02-22T12:14:25;12.00;99.90
18163;DHT22;9206;50.994;4.538;2023-02-22T12:17:41;12.30;99.90
18163;DHT22;9206;50.994;4.538;2023-02-22T12:20:36;12.40;99.90
18163;DHT22;9206;50.994;4.538;2023-02-22T12:23:33;12.40;99.90
18163;DHT22;9206;50.994;4.538;2023-02-22T12:26:29;12.40;99.90
18163;DHT22;9206;50.994;4.538;2023-02-22T12:29:28;12.30;99.90
18163;DHT22;9206;50.994;4.538;2023-02-22T12:32:27;12.30;99.90
18163;DHT22;9206;50.994;4.538;2023-02-22T12:35:23;12.50;99.90
18163;DHT22;9206;50.994;4.538;2023-02-22T12:38:21;12.90;99.90
18163;DHT22;9206;50.994;4.538;2023-02-22T12:41:21;13.30;99.90
18163;DHT22;9206;50.994;4.538;2023-02-22T12:44:16;13.50;99.90
18163;DHT22;9206;50.994;4.538;2023-02-22T12:47:13;13.40;99.90
18163;DHT22;9206;50.994;4.538;2023-02-22T12:50:06;13.00;99.90
18163;DHT22;9206;50.994;4.538;2023-02-22T12:53:02;12.70;99.90
18163;DHT22;9206;50.994;4.538;2023-02-22T12:55:53;12.60;99.90
18163;DHT22;9206;50.994;4.538;2023-02-22T12:58:50;12.40;99.90
18163;DHT22;9206;50.994;4.538;2023-02-22T13:01:50;12.30;99.90
18163;DHT22;9206;50.994;4.538;2023-02-22T13:04:42;12.30;99.90
18163;DHT22;9206;50.994;4.538;2023-02-22T13:07:39;12.30;99.90
18163;DHT22;9206;50.994;4.538;2023-02-22T13:10:37;12.30;99.90
18163;DHT22;9206;50.994;4.538;2023-02-22T13:13:35;12.30;99.90
18163;DHT22;9206;50.994;4.538;2023-02-22T13:16:35;12.30;99.90
18163;DHT22;9206;50.994;4.538;2023-02-22T13:19:35;12.30;99.90
18163;DHT22;9206;50.994;4.538;2023-02-22T13:22:34;12.20;99.90
18163;DHT22;9206;50.994;4.538;2023-02-22T13:25:35;12.40;99.90
18163;DHT22;9206;50.994;4.538;2023-02-22T13:28:32;12.50;99.90
18163;DHT22;9206;50.994;4.538;2023-02-22T13:35:07;12.50;99.90
18163;DHT22;9206;50.994;4.538;2023-02-22T13:38:26;12.40;99.90
18163;DHT22;9206;50.994;4.538;2023-02-22T13:41:41;12.50;99.90
18163;DHT22;9206;50.994;4.538;2023-02-22T13:45:17;12.30;99.90
18163;DHT22;9206;50.994;4.538;2023-02-22T13:48:23;12.00;99.90
18163;DHT22;9206;50.994;4.538;2023-02-22T13:51:35;11.90;99.90
18163;DHT22;9206;50.994;4.538;2023-02-22T13:54:26;11.70;99.90
18163;DHT22;9206;50.994;4.538;2023-02-22T13:57:27;11.60;99.90
18163;DHT22;9206;50.994;4.538;2023-02-22T14:00:37;11.50;99.90
18163;DHT22;9206;50.994;4.538;2023-02-22T14:03:37;11.40;99.90
18163;DHT22;9206;50.994;4.538;2023-02-22T14:06:37;11.30;99.90
18163;DHT22;9206;50.994;4.538;2023-02-22T14:09:46;11.20;99.90
18163;DHT22;9206;50.994;4.538;2023-02-22T14:12:49;11.20;99.90
18163;DHT22;9206;50.994;4.538;2023-02-22T14:19:03;11.20;99.90
18163;DHT22;9206;50.994;4.538;2023-02-22T14:21:59;11.30;99.90
18163;DHT22;9206;50.994;4.538;2023-02-22T14:24:48;11.30;99.90
18163;DHT22;9206;50.994;4.538;2023-02-22T14:27:42;11.30;99.90
18163;DHT22;9206;50.994;4.538;2023-02-22T14:30:31;11.30;99.90
18163;DHT22;9206;50.994;4.538;2023-02-22T14:33:56;11.30;99.90
18163;DHT22;9206;50.994;4.538;2023-02-22T14:36:52;11.30;99.90
18163;DHT22;9206;50.994;4.538;2023-02-22T14:39:45;11.10;99.90
18163;DHT22;9206;50.994;4.538;2023-02-22T14:42:43;11.10;99.90
18163;DHT22;9206;50.994;4.538;2023-02-22T14:45:33;11.00;99.90
18163;DHT22;9206;50.994;4.538;2023-02-22T14:48:30;11.00;99.90
18163;DHT22;9206;50.994;4.538;2023-02-22T14:51:37;11.00;99.90
18163;DHT22;9206;50.994;4.538;2023-02-22T14:54:30;10.90;99.90
18163;DHT22;9206;50.994;4.538;2023-02-22T14:57:26;10.80;99.90
18163;DHT22;9206;50.994;4.538;2023-02-22T15:00:20;10.70;99.90
18163;DHT22;9206;50.994;4.538;2023-02-22T15:03:27;10.70;99.90
18163;DHT22;9206;50.994;4.538;2023-02-22T15:06:24;10.70;99.90
18163;DHT22;9206;50.994;4.538;2023-02-22T15:09:17;10.60;99.90
18163;DHT22;9206;50.994;4.538;2023-02-22T15:12:20;10.60;99.90
18163;DHT22;9206;50.994;4.538;2023-02-22T15:15:15;10.50;99.90
18163;DHT22;9206;50.994;4.538;2023-02-22T15:18:21;10.50;99.90
18163;DHT22;9206;50.994;4.538;2023-02-22T15:21:11;10.40;99.90
18163;DHT22;9206;50.994;4.538;2023-02-22T15:24:03;10.40;99.90
18163;DHT22;9206;50.994;4.538;2023-02-22T15:26:51;10.30;99.90
18163;DHT22;9206;50.994;4.538;2023-02-22T15:29:42;10.30;99.90
18163;DHT22;9206;50.994;4.538;2023-02-22T15:32:36;10.30;99.90
18163;DHT22;9206;50.994;4.538;2023-02-22T15:35:59;10.20;99.90
18163;DHT22;9206;50.994;4.538;2023-02-22T15:38:53;10.20;99.90
18163;DHT22;9206;50.994;4.538;2023-02-22T15:41:47;10.20;99.90
18163;DHT22;9206;50.994;4.538;2023-02-22T15:44:37;10.10;99.90
18163;DHT22;9206;50.994;4.538;2023-02-22T15:47:31;10.10;99.90
18163;DHT22;9206;50.994;4.538;2023-02-22T15:50:22;10.10;99.90
18163;DHT22;9206;50.994;4.538;2023-02-22T15:53:24;10.00;99.90
18163;DHT22;9206;50.994;4.538;2023-02-22T15:56:15;9.90;99.90
18163;DHT22;9206;50.994;4.538;2023-02-22T15:59:12;9.90;99.90
18163;DHT22;9206;50.994;4.538;2023-02-22T16:02:00;9.80;99.90
18163;DHT22;9206;50.994;4.538;2023-02-22T16:04:47;9.80;99.90
18163;DHT22;9206;50.994;4.538;2023-02-22T16:07:49;9.80;99.90
18163;DHT22;9206;50.994;4.538;2023-02-22T16:10:50;9.70;99.90
18163;DHT22;9206;50.994;4.538;2023-02-22T16:13:51;9.70;99.90
18163;DHT22;9206;50.994;4.538;2023-02-22T16:16:44;9.60;99.90
18163;DHT22;9206;50.994;4.538;2023-02-22T16:19:42;9.60;99.90
18163;DHT22;9206;50.994;4.538;2023-02-22T16:22:31;9.60;99.90
18163;DHT22;9206;50.994;4.538;2023-02-22T16:25:32;9.50;99.90
18163;DHT22;9206;50.994;4.538;2023-02-22T16:28:29;9.50;99.90
18163;DHT22;9206;50.994;4.538;2023-02-22T16:31:28;9.50;99.90
18163;DHT22;9206;50.994;4.538;2023-02-22T16:34:19;9.40;99.90
18163;DHT22;9206;50.994;4.538;2023-02-22T16:37:19;9.40;99.90
18163;DHT22;9206;50.994;4.538;2023-02-22T16:40:10;9.40;99.90
18163;DHT22;9206;50.994;4.538;2023-02-22T16:43:12;9.40;99.90
18163;DHT22;9206;50.994;4.538;2023-02-22T16:46:03;9.40;99.90
18163;DHT22;9206;50.994;4.538;2023-02-22T16:49:18;9.40;99.90
18163;DHT22;9206;50.994;4.538;2023-02-22T16:52:17;9.30;99.90
18163;DHT22;9206;50.994;4.538;2023-02-22T16:55:09;9.40;99.90
18163;DHT22;9206;50.994;4.538;2023-02-22T16:57:58;9.30;99.90
18163;DHT22;9206;50.994;4.538;2023-02-22T17:00:49;9.30;99.90
18163;DHT22;9206;50.994;4.538;2023-02-22T17:03:40;9.30;99.90
18163;DHT22;9206;50.994;4.538;2023-02-22T17:06:27;9.30;99.90
18163;DHT22;9206;50.994;4.538;2023-02-22T17:09:16;9.30;99.90
18163;DHT22;9206;50.994;4.538;2023-02-22T17:12:05;9.40;99.90
18163;DHT22;9206;50.994;4.538;2023-02-22T17:15:01;9.30;99.90
18163;DHT22;9206;50.994;4.538;2023-02-22T17:17:54;9.30;99.90
18163;DHT22;9206;50.994;4.538;2023-02-22T17:20:45;9.30;99.90
18163;DHT22;9206;50.994;4.538;2023-02-22T17:23:38;9.30;99.90
18163;DHT22;9206;50.994;4.538;2023-02-22T17:26:25;9.30;99.90
18163;DHT22;9206;50.994;4.538;2023-02-22T17:29:19;9.20;99.90
18163;DHT22;9206;50.994;4.538;2023-02-22T17:32:31;9.20;99.90
18163;DHT22;9206;50.994;4.538;2023-02-22T17:35:32;9.20;99.90
18163;DHT22;9206;50.994;4.538;2023-02-22T17:38:19;9.20;99.90
18163;DHT22;9206;50.994;4.538;2023-02-22T17:41:12;9.20;99.90
18163;DHT22;9206;50.994;4.538;2023-02-22T17:44:02;9.10;99.90
18163;DHT22;9206;50.994;4.538;2023-02-22T17:46:56;9.10;99.90
18163;DHT22;9206;50.994;4.538;2023-02-22T17:49:44;9.10;99.90
18163;DHT22;9206;50.994;4.538;2023-02-22T17:52:36;9.10;99.90
18163;DHT22;9206;50.994;4.538;2023-02-22T17:55:30;9.10;99.90
18163;DHT22;9206;50.994;4.538;2023-02-22T17:58:20;9.00;99.90
18163;DHT22;9206;50.994;4.538;2023-02-22T18:01:19;9.00;99.90
18163;DHT22;9206;50.994;4.538;2023-02-22T18:04:08;9.00;99.90
18163;DHT22;9206;50.994;4.538;2023-02-22T18:06:56;9.00;99.90
18163;DHT22;9206;50.994;4.538;2023-02-22T18:09:51;9.00;99.90
18163;DHT22;9206;50.994;4.538;2023-02-22T18:12:41;9.00;99.90
18163;DHT22;9206;50.994;4.538;2023-02-22T18:15:30;9.00;99.90
18163;DHT22;9206;50.994;4.538;2023-02-22T18:18:22;9.00;99.90
18163;DHT22;9206;50.994;4.538;2023-02-22T18:21:12;9.00;99.90
18163;DHT22;9206;50.994;4.538;2023-02-22T18:24:02;9.00;99.90
18163;DHT22;9206;50.994;4.538;2023-02-22T18:26:52;8.90;99.90
18163;DHT22;9206;50.994;4.538;2023-02-22T18:29:45;9.00;99.90
18163;DHT22;9206;50.994;4.538;2023-02-22T18:32:32;8.90;99.90
18163;DHT22;9206;50.994;4.538;2023-02-22T18:35:22;8.90;99.90
18163;DHT22;9206;50.994;4.538;2023-02-22T18:38:09;8.90;99.90
18163;DHT22;9206;50.994;4.538;2023-02-22T18:41:05;8.90;99.90
18163;DHT22;9206;50.994;4.538;2023-02-22T18:43:56;8.90;99.90
18163;DHT22;9206;50.994;4.538;2023-02-22T18:46:45;8.90;99.90
18163;DHT22;9206;50.994;4.538;2023-02-22T18:49:32;8.90;99.90
18163;DHT22;9206;50.994;4.538;2023-02-22T18:52:26;8.90;99.90
18163;DHT22;9206;50.994;4.538;2023-02-22T18:55:19;8.80;99.90
18163;DHT22;9206;50.994;4.538;2023-02-22T18:58:10;8.80;99.90
18163;DHT22;9206;50.994;4.538;2023-02-22T19:01:05;8.80;99.90
18163;DHT22;9206;50.994;4.538;2023-02-22T19:03:54;8.80;99.90
18163;DHT22;9206;50.994;4.538;2023-02-22T19:06:45;8.80;99.90
18163;DHT22;9206;50.994;4.538;2023-02-22T19:09:37;8.70;99.90